IGN99 GCLB-GCRR
Flight info
| Callsign | IGN99 |
|---|---|
| Flight time | 0h 40m |
| Altitude | 9000 |
| Route | 275051N0151232W DCT RASEP |
| Aircraft | BE9L/L-SBDFGRY/SB1 |
Departure
| Time | 2026-04-28 12:02 |
|---|---|
| Airport | El Berriel Aeroc Airport (GCLB) |
Arrival
| Time | 2026-04-28 12:42 |
|---|---|
| Airport | César Manrique-Lanzarote Airport (GCRR) |
| Time | Latitude | Longitude | Altitude | Speed | Heading |
|---|---|---|---|---|---|
| 2026-04-28 11:51 | 27.78363 | -15.51043 | 48 ft | 0 kts | 80° |
| 2026-04-28 11:55 | 27.78361 | -15.51058 | 49 ft | 5 kts | 81° |
| 2026-04-28 11:55 | 27.78361 | -15.51064 | 48 ft | 0 kts | 81° |
| 2026-04-28 11:56 | 27.78360 | -15.51062 | 48 ft | 1 kts | 103° |
| 2026-04-28 11:56 | 27.78351 | -15.51062 | 48 ft | 2 kts | 214° |
| 2026-04-28 11:56 | 27.78318 | -15.51056 | 46 ft | 10 kts | 157° |
| 2026-04-28 11:56 | 27.78286 | -15.51043 | 39 ft | 3 kts | 193° |
| 2026-04-28 11:57 | 27.78270 | -15.51056 | 36 ft | 4 kts | 220° |
| 2026-04-28 11:57 | 27.78192 | -15.51089 | 31 ft | 15 kts | 191° |
| 2026-04-28 11:57 | 27.78132 | -15.51121 | 28 ft | 12 kts | 220° |
| 2026-04-28 11:57 | 27.78105 | -15.51121 | 27 ft | 2 kts | 81° |
| 2026-04-28 11:58 | 27.78106 | -15.51118 | 27 ft | 0 kts | 68° |
| 2026-04-28 12:01 | 27.78112 | -15.51101 | 27 ft | 18 kts | 68° |
| 2026-04-28 12:01 | 27.78240 | -15.50743 | 26 ft | 79 kts | 68° |
| 2026-04-28 12:01 | 27.78505 | -15.50019 | 174 ft | 113 kts | 72° |
| 2026-04-28 12:02 | 27.78734 | -15.49103 | 541 ft | 130 kts | 71° |
| 2026-04-28 12:02 | 27.78972 | -15.47996 | 705 ft | 157 kts | 73° |
| 2026-04-28 12:02 | 27.79182 | -15.46759 | 927 ft | 163 kts | 79° |
| 2026-04-28 12:02 | 27.79357 | -15.45465 | 1001 ft | 174 kts | 78° |
| 2026-04-28 12:03 | 27.79582 | -15.44067 | 1002 ft | 185 kts | 76° |
| 2026-04-28 12:03 | 27.79866 | -15.42624 | 1025 ft | 191 kts | 75° |
| 2026-04-28 12:03 | 27.80140 | -15.41143 | 977 ft | 196 kts | 76° |
| 2026-04-28 12:03 | 27.80381 | -15.39657 | 1003 ft | 195 kts | 76° |
| 2026-04-28 12:04 | 27.80608 | -15.38131 | 977 ft | 198 kts | 77° |
| 2026-04-28 12:04 | 27.80857 | -15.36614 | 979 ft | 196 kts | 76° |
| 2026-04-28 12:04 | 27.81091 | -15.35096 | 1034 ft | 194 kts | 77° |
| 2026-04-28 12:04 | 27.81321 | -15.33579 | 955 ft | 198 kts | 78° |
| 2026-04-28 12:05 | 27.81535 | -15.32048 | 1036 ft | 197 kts | 78° |
| 2026-04-28 12:05 | 27.81800 | -15.30516 | 1000 ft | 198 kts | 76° |
| 2026-04-28 12:05 | 27.82076 | -15.28992 | 1023 ft | 199 kts | 76° |
| 2026-04-28 12:05 | 27.82354 | -15.27454 | 1027 ft | 199 kts | 75° |
| 2026-04-28 12:06 | 27.82630 | -15.25923 | 1031 ft | 200 kts | 76° |
| 2026-04-28 12:06 | 27.82922 | -15.24374 | 994 ft | 201 kts | 74° |
| 2026-04-28 12:06 | 27.83222 | -15.22838 | 1047 ft | 199 kts | 73° |
| 2026-04-28 12:06 | 27.83555 | -15.21320 | 1062 ft | 199 kts | 73° |
| 2026-04-28 12:07 | 27.83890 | -15.19784 | 1018 ft | 201 kts | 70° |
| 2026-04-28 12:07 | 27.84614 | -15.18487 | 1015 ft | 195 kts | 37° |
| 2026-04-28 12:07 | 27.85664 | -15.17567 | 1120 ft | 190 kts | 37° |
| 2026-04-28 12:07 | 27.86692 | -15.16621 | 1112 ft | 189 kts | 38° |
| 2026-04-28 12:08 | 27.87724 | -15.15658 | 1115 ft | 195 kts | 37° |
| 2026-04-28 12:08 | 27.88768 | -15.14702 | 1360 ft | 189 kts | 37° |
| 2026-04-28 12:08 | 27.89789 | -15.13756 | 1582 ft | 189 kts | 37° |
| 2026-04-28 12:08 | 27.90795 | -15.12842 | 1877 ft | 186 kts | 37° |
| 2026-04-28 12:09 | 27.91792 | -15.11948 | 2269 ft | 180 kts | 36° |
| 2026-04-28 12:09 | 27.92762 | -15.11091 | 2689 ft | 175 kts | 34° |
| 2026-04-28 12:09 | 27.93725 | -15.10254 | 3056 ft | 174 kts | 34° |
| 2026-04-28 12:09 | 27.94681 | -15.09408 | 3420 ft | 174 kts | 35° |
| 2026-04-28 12:10 | 27.95633 | -15.08559 | 3756 ft | 175 kts | 34° |
| 2026-04-28 12:10 | 27.96581 | -15.07688 | 4106 ft | 176 kts | 37° |
| 2026-04-28 12:10 | 27.97524 | -15.06783 | 4419 ft | 179 kts | 38° |
| 2026-04-28 12:10 | 27.98497 | -15.05889 | 4716 ft | 183 kts | 34° |
| 2026-04-28 12:11 | 27.99532 | -15.05012 | 4957 ft | 187 kts | 35° |
| 2026-04-28 12:11 | 28.00203 | -15.04409 | 5207 ft | 185 kts | 36° |
| 2026-04-28 12:11 | 28.01512 | -15.03150 | 5713 ft | 184 kts | 38° |
| 2026-04-28 12:11 | 28.02157 | -15.02534 | 5945 ft | 184 kts | 39° |
| 2026-04-28 12:12 | 28.03135 | -15.01596 | 6279 ft | 184 kts | 37° |
| 2026-04-28 12:12 | 28.04443 | -15.00353 | 6689 ft | 187 kts | 38° |
| 2026-04-28 12:12 | 28.05447 | -14.99413 | 7008 ft | 187 kts | 36° |
| 2026-04-28 12:12 | 28.06446 | -14.98456 | 7298 ft | 189 kts | 37° |
| 2026-04-28 12:13 | 28.07452 | -14.97487 | 7611 ft | 190 kts | 34° |
| 2026-04-28 12:13 | 28.08525 | -14.96607 | 7923 ft | 192 kts | 32° |
| 2026-04-28 12:13 | 28.09251 | -14.96033 | 8129 ft | 192 kts | 33° |
| 2026-04-28 12:13 | 28.10338 | -14.95130 | 8445 ft | 195 kts | 34° |
| 2026-04-28 12:14 | 28.11424 | -14.94206 | 8771 ft | 196 kts | 34° |
| 2026-04-28 12:14 | 28.12532 | -14.93264 | 8990 ft | 204 kts | 32° |
| 2026-04-28 12:14 | 28.13699 | -14.92275 | 9055 ft | 214 kts | 33° |
| 2026-04-28 12:14 | 28.14916 | -14.91241 | 9074 ft | 222 kts | 33° |
| 2026-04-28 12:15 | 28.16160 | -14.90182 | 9069 ft | 225 kts | 34° |
| 2026-04-28 12:15 | 28.17421 | -14.89108 | 9070 ft | 227 kts | 33° |
| 2026-04-28 12:15 | 28.18692 | -14.88031 | 9064 ft | 229 kts | 33° |
| 2026-04-28 12:15 | 28.19970 | -14.86945 | 9069 ft | 230 kts | 34° |
| 2026-04-28 12:16 | 28.21255 | -14.85851 | 9067 ft | 231 kts | 32° |
| 2026-04-28 12:16 | 28.22547 | -14.84753 | 9069 ft | 232 kts | 34° |
| 2026-04-28 12:16 | 28.23841 | -14.83654 | 9067 ft | 233 kts | 34° |
| 2026-04-28 12:16 | 28.25138 | -14.82549 | 9068 ft | 233 kts | 34° |
| 2026-04-28 12:17 | 28.26435 | -14.81445 | 9064 ft | 233 kts | 34° |
| 2026-04-28 12:17 | 28.27732 | -14.80342 | 9064 ft | 233 kts | 34° |
| 2026-04-28 12:17 | 28.29030 | -14.79236 | 9065 ft | 233 kts | 32° |
| 2026-04-28 12:17 | 28.30328 | -14.78130 | 9065 ft | 234 kts | 34° |
| 2026-04-28 12:18 | 28.31611 | -14.77038 | 9066 ft | 234 kts | 34° |
| 2026-04-28 12:18 | 28.32926 | -14.75915 | 9066 ft | 233 kts | 34° |
| 2026-04-28 12:18 | 28.34226 | -14.74808 | 9066 ft | 233 kts | 34° |
| 2026-04-28 12:18 | 28.35525 | -14.73702 | 9065 ft | 233 kts | 34° |
| 2026-04-28 12:19 | 28.36804 | -14.72608 | 9064 ft | 233 kts | 32° |
| 2026-04-28 12:19 | 28.38105 | -14.71499 | 9069 ft | 234 kts | 34° |
| 2026-04-28 12:19 | 28.39403 | -14.70391 | 9068 ft | 233 kts | 34° |
| 2026-04-28 12:19 | 28.40701 | -14.69282 | 9069 ft | 234 kts | 34° |
| 2026-04-28 12:20 | 28.42001 | -14.68171 | 9061 ft | 234 kts | 34° |
| 2026-04-28 12:20 | 28.43298 | -14.67064 | 9064 ft | 233 kts | 34° |
| 2026-04-28 12:20 | 28.44601 | -14.65954 | 9060 ft | 233 kts | 33° |
| 2026-04-28 12:20 | 28.45899 | -14.64845 | 9060 ft | 233 kts | 34° |
| 2026-04-28 12:21 | 28.47194 | -14.63735 | 9064 ft | 233 kts | 34° |
| 2026-04-28 12:21 | 28.48486 | -14.62623 | 9064 ft | 233 kts | 34° |
| 2026-04-28 12:21 | 28.49764 | -14.61496 | 9063 ft | 233 kts | 35° |
| 2026-04-28 12:21 | 28.51012 | -14.60325 | 9063 ft | 232 kts | 37° |
| 2026-04-28 12:22 | 28.52241 | -14.59166 | 9069 ft | 232 kts | 36° |
| 2026-04-28 12:22 | 28.53478 | -14.57989 | 9068 ft | 232 kts | 37° |
| 2026-04-28 12:22 | 28.54712 | -14.56811 | 9066 ft | 231 kts | 37° |
| 2026-04-28 12:22 | 28.55954 | -14.55636 | 9066 ft | 231 kts | 38° |
| 2026-04-28 12:23 | 28.57187 | -14.54459 | 9068 ft | 231 kts | 36° |
| 2026-04-28 12:23 | 28.58415 | -14.53285 | 9068 ft | 231 kts | 37° |
| 2026-04-28 12:23 | 28.59653 | -14.52114 | 9065 ft | 231 kts | 36° |
| 2026-04-28 12:23 | 28.60884 | -14.50938 | 9068 ft | 231 kts | 37° |
| 2026-04-28 12:24 | 28.62109 | -14.49758 | 9059 ft | 230 kts | 37° |
| 2026-04-28 12:24 | 28.63343 | -14.48584 | 9063 ft | 231 kts | 38° |
| 2026-04-28 12:24 | 28.64546 | -14.47376 | 9061 ft | 232 kts | 44° |
| 2026-04-28 12:24 | 28.65492 | -14.45904 | 9062 ft | 233 kts | 55° |
| 2026-04-28 12:25 | 28.66372 | -14.44344 | 9061 ft | 234 kts | 55° |
| 2026-04-28 12:25 | 28.67362 | -14.42909 | 9066 ft | 228 kts | 31° |
| 2026-04-28 12:25 | 28.68741 | -14.42058 | 9065 ft | 226 kts | 27° |
| 2026-04-28 12:25 | 28.70024 | -14.41008 | 9064 ft | 230 kts | 43° |
| 2026-04-28 12:26 | 28.71002 | -14.39550 | 9060 ft | 233 kts | 53° |
| 2026-04-28 12:26 | 28.71926 | -14.38035 | 9063 ft | 230 kts | 41° |
| 2026-04-28 12:26 | 28.73009 | -14.36699 | 9059 ft | 232 kts | 47° |
| 2026-04-28 12:26 | 28.73957 | -14.35206 | 9065 ft | 233 kts | 52° |
| 2026-04-28 12:27 | 28.74880 | -14.33682 | 9058 ft | 234 kts | 51° |
| 2026-04-28 12:27 | 28.75807 | -14.32160 | 9063 ft | 234 kts | 52° |
| 2026-04-28 12:27 | 28.76737 | -14.30637 | 9065 ft | 234 kts | 51° |
| 2026-04-28 12:27 | 28.77670 | -14.29114 | 9063 ft | 234 kts | 52° |
| 2026-04-28 12:28 | 28.78600 | -14.27590 | 9067 ft | 235 kts | 52° |
| 2026-04-28 12:28 | 28.79528 | -14.26068 | 9066 ft | 233 kts | 52° |
| 2026-04-28 12:28 | 28.80457 | -14.24549 | 9065 ft | 233 kts | 52° |
| 2026-04-28 12:28 | 28.81381 | -14.23033 | 9066 ft | 233 kts | 52° |
| 2026-04-28 12:29 | 28.83223 | -14.20015 | 9059 ft | 233 kts | 52° |
| 2026-04-28 12:29 | 28.84143 | -14.18505 | 9059 ft | 232 kts | 53° |
| 2026-04-28 12:29 | 28.85036 | -14.16971 | 9059 ft | 231 kts | 51° |
| 2026-04-28 12:30 | 28.85906 | -14.15424 | 9056 ft | 232 kts | 54° |
| 2026-04-28 12:30 | 28.86784 | -14.13861 | 8913 ft | 237 kts | 54° |
| 2026-04-28 12:30 | 28.87689 | -14.12272 | 8719 ft | 238 kts | 53° |
| 2026-04-28 12:30 | 28.88575 | -14.10689 | 8515 ft | 235 kts | 54° |
| 2026-04-28 12:31 | 28.89452 | -14.09129 | 8320 ft | 232 kts | 54° |
| 2026-04-28 12:31 | 28.90331 | -14.07583 | 8121 ft | 231 kts | 54° |
| 2026-04-28 12:31 | 28.91197 | -14.06049 | 7920 ft | 230 kts | 56° |
| 2026-04-28 12:31 | 28.91938 | -14.04445 | 7715 ft | 231 kts | 75° |
| 2026-04-28 12:32 | 28.92094 | -14.02621 | 7532 ft | 232 kts | 85° |
| 2026-04-28 12:32 | 28.92100 | -14.00778 | 7339 ft | 232 kts | 88° |
| 2026-04-28 12:32 | 28.92079 | -13.98958 | 7147 ft | 232 kts | 88° |
| 2026-04-28 12:32 | 28.92081 | -13.97119 | 6962 ft | 230 kts | 85° |
| 2026-04-28 12:33 | 28.92181 | -13.95308 | 6773 ft | 228 kts | 82° |
| 2026-04-28 12:33 | 28.92297 | -13.93508 | 6582 ft | 226 kts | 82° |
| 2026-04-28 12:33 | 28.92437 | -13.91724 | 6388 ft | 225 kts | 81° |
| 2026-04-28 12:33 | 28.92648 | -13.89960 | 6189 ft | 223 kts | 79° |
| 2026-04-28 12:34 | 28.92906 | -13.88216 | 6026 ft | 221 kts | 76° |
| 2026-04-28 12:34 | 28.92863 | -13.86491 | 5861 ft | 225 kts | 109° |
| 2026-04-28 12:34 | 28.91820 | -13.85137 | 5576 ft | 236 kts | 147° |
| 2026-04-28 12:34 | 28.90320 | -13.84315 | 5229 ft | 242 kts | 156° |
| 2026-04-28 12:35 | 28.88737 | -13.83634 | 4902 ft | 244 kts | 159° |
| 2026-04-28 12:35 | 28.87136 | -13.82975 | 4559 ft | 245 kts | 159° |
| 2026-04-28 12:35 | 28.85548 | -13.82316 | 4228 ft | 242 kts | 159° |
| 2026-04-28 12:35 | 28.83979 | -13.81672 | 3904 ft | 237 kts | 159° |
| 2026-04-28 12:36 | 28.82444 | -13.81030 | 3616 ft | 233 kts | 159° |
| 2026-04-28 12:36 | 28.80979 | -13.80315 | 3391 ft | 226 kts | 145° |
| 2026-04-28 12:36 | 28.79850 | -13.79106 | 3165 ft | 221 kts | 129° |
| 2026-04-28 12:36 | 28.78873 | -13.77780 | 2929 ft | 222 kts | 127° |
| 2026-04-28 12:37 | 28.77889 | -13.76424 | 2701 ft | 223 kts | 127° |
| 2026-04-28 12:37 | 28.76952 | -13.75025 | 2475 ft | 219 kts | 113° |
| 2026-04-28 12:37 | 28.76665 | -13.73372 | 2357 ft | 208 kts | 85° |
| 2026-04-28 12:37 | 28.77055 | -13.71850 | 2323 ft | 195 kts | 61° |
| 2026-04-28 12:38 | 28.77803 | -13.70634 | 2309 ft | 183 kts | 40° |
| 2026-04-28 12:38 | 28.78768 | -13.69731 | 2297 ft | 176 kts | 27° |
| 2026-04-28 12:38 | 28.79841 | -13.69071 | 2288 ft | 174 kts | 25° |
| 2026-04-28 12:38 | 28.80914 | -13.68442 | 2290 ft | 172 kts | 23° |
| 2026-04-28 12:39 | 28.81960 | -13.67830 | 2286 ft | 170 kts | 22° |
| 2026-04-28 12:39 | 28.83002 | -13.67236 | 2291 ft | 167 kts | 23° |
| 2026-04-28 12:39 | 28.84035 | -13.66628 | 2155 ft | 169 kts | 23° |
| 2026-04-28 12:39 | 28.85102 | -13.66010 | 1934 ft | 174 kts | 23° |
| 2026-04-28 12:40 | 28.86182 | -13.65382 | 1694 ft | 174 kts | 22° |
| 2026-04-28 12:40 | 28.87253 | -13.64759 | 1457 ft | 172 kts | 24° |
| 2026-04-28 12:40 | 28.88321 | -13.64135 | 1226 ft | 174 kts | 22° |
| 2026-04-28 12:40 | 28.89360 | -13.63532 | 1181 ft | 157 kts | 24° |
| 2026-04-28 12:41 | 28.90295 | -13.62967 | 905 ft | 150 kts | 23° |
| 2026-04-28 12:41 | 28.91170 | -13.62432 | 756 ft | 133 kts | 23° |
| 2026-04-28 12:41 | 28.91975 | -13.61980 | 493 ft | 129 kts | 19° |
| 2026-04-28 12:41 | 28.92797 | -13.61540 | 243 ft | 127 kts | 24° |
| 2026-04-28 12:42 | 28.93566 | -13.61080 | 85 ft | 123 kts | 21° |
| 2026-04-28 12:42 | 28.94267 | -13.60688 | 27 ft | 99 kts | 25° |
| 2026-04-28 12:42 | 28.94778 | -13.60389 | 39 ft | 62 kts | 26° |
| 2026-04-28 12:42 | 28.95006 | -13.60259 | 44 ft | 20 kts | 26° |
| 2026-04-28 12:43 | 28.95158 | -13.60215 | 45 ft | 16 kts | 360° |
| 2026-04-28 12:43 | 28.95254 | -13.60213 | 45 ft | 17 kts | 1° |
| 2026-04-28 12:43 | 28.95320 | -13.60231 | 46 ft | 2 kts | 292° |
| 2026-04-28 12:43 | 28.95336 | -13.60276 | 46 ft | 0 kts | 297° |
| 2026-04-28 12:44 | 28.95329 | -13.60258 | 46 ft | 3 kts | 284° |
| 2026-04-28 12:44 | 28.95353 | -13.60305 | 46 ft | 7 kts | 300° |
| 2026-04-28 12:44 | 28.95363 | -13.60327 | 46 ft | 9 kts | 296° |
| 2026-04-28 12:44 | 28.95408 | -13.60383 | 46 ft | 5 kts | 23° |
| 2026-04-28 12:45 | 28.95468 | -13.60370 | 46 ft | 8 kts | 329° |
| 2026-04-28 12:45 | 28.95512 | -13.60403 | 46 ft | 10 kts | 342° |
| 2026-04-28 12:45 | 28.95523 | -13.60406 | 46 ft | 0 kts | 333° |
| 2026-04-28 12:45 | 28.95531 | -13.60422 | 46 ft | 3 kts | 228° |
| 2026-04-28 12:46 | 28.95529 | -13.60424 | 46 ft | 0 kts | 198° |